PWSweather.com
Personal Weather Stations
Station Observations
CW5171
Mountain Shadows, Colorado Springs, CO 80919

Mountain ShadowsColorado Springs, CO 80919

Lat: 38.928, Lon: -104.868

Elevation: 6650

Station Type: LaCrosse WS-2308

High Low Average
Temperature 67.8°F19.9°C 37.0°F2.8°C 51.6°F10.9°C
Dew Point 35.4°F1.9°C 27.7°F-2.4°C 32.1°F0.1°C
Winds 13.8 mph 22.2 kmh Calm Calm 6.0 mph SSW9.7 kmh SSW
Wind Gusts 25.5 mph41.0 kmh -- 11.0 mph17.7 kmh
Humidity 73% 27% 50%
Pressure 30.22 in1023.4 mb 30.16 in1021.3 mb -
Precipitation 0.00 in0.0 mm - -
Hour Temp Dew Point Humidity Winds Wind Gusts Pressure Precip Precip Rate Daily Precip Total
12:08 AM 47.8°F8.8°C 31.0°F-0.6°C 52% 3.4 mph NW5.5 kmh NW 5.6 mph9.0 kmh 30.19 in1022.4 mb 0.00 in0.0 mm 0.00 in/hr0.0 mm/hr 0.00 in0.0 mm
12:18 AM 47.8°F8.8°C 31.5°F-0.3°C 53% 2.5 mph NW4.0 kmh NW 3.6 mph5.8 kmh 30.19 in1022.4 mb 0.00 in0.0 mm 0.00 in/hr0.0 mm/hr 0.00 in0.0 mm
12:28 AM 48.8°F9.3°C 34.2°F1.2°C 57% 0.7 mph WNW1.1 kmh WNW 4.7 mph7.6 kmh 30.19 in1022.4 mb 0.00 in0.0 mm 0.00 in/hr0.0 mm/hr 0.00 in0.0 mm
12:38 AM 49.1°F9.5°C 33.2°F0.7°C 54% 0.9 mph SSW1.4 kmh SSW 6.0 mph9.7 kmh 30.19 in1022.4 mb 0.00 in0.0 mm 0.00 in/hr0.0 mm/hr 0.00 in0.0 mm
12:48 AM 48.3°F9.1°C 31.9°F-0.1°C 53% 1.6 mph SSW2.6 kmh SSW 2.2 mph3.5 kmh 30.19 in1022.4 mb 0.00 in0.0 mm 0.00 in/hr0.0 mm/hr 0.00 in0.0 mm
12:58 AM 47.6°F8.7°C 31.7°F-0.2°C 54% 1.2 mph SSW1.9 kmh SSW 2.2 mph3.5 kmh 30.19 in1022.4 mb 0.00 in0.0 mm 0.00 in/hr0.0 mm/hr 0.00 in0.0 mm
01:08 AM 46.7°F8.2°C 31.4°F-0.3°C 55% 2.6 mph WSW4.2 kmh WSW 3.1 mph5.0 kmh 30.19 in1022.4 mb 0.00 in0.0 mm 0.00 in/hr0.0 mm/hr 0.00 in0.0 mm
01:19 AM 46.4°F8.0°C 32.4°F0.2°C 58% 1.8 mph WSW2.9 kmh WSW 3.4 mph5.5 kmh 30.19 in1022.4 mb 0.00 in0.0 mm 0.00 in/hr0.0 mm/hr 0.00 in0.0 mm
01:29 AM 46.8°F8.2°C 32.8°F0.4°C 58% Calm Calm 2.9 mph4.7 kmh 30.19 in1022.4 mb 0.00 in0.0 mm 0.00 in/hr0.0 mm/hr 0.00 in0.0 mm
01:39 AM 45.8°F7.7°C 31.4°F-0.3°C 57% Calm Calm -- 30.18 in1022.0 mb 0.00 in0.0 mm 0.00 in/hr0.0 mm/hr 0.00 in0.0 mm
01:49 AM 45.0°F7.2°C 31.5°F-0.3°C 59% Calm Calm -- 30.18 in1022.0 mb 0.00 in0.0 mm 0.00 in/hr0.0 mm/hr 0.00 in0.0 mm
01:59 AM 44.8°F7.1°C 31.7°F-0.2°C 60% 2.5 mph SW4.0 kmh SW 3.1 mph5.0 kmh 30.18 in1022.0 mb 0.00 in0.0 mm 0.00 in/hr0.0 mm/hr 0.00 in0.0 mm
02:09 AM 45.0°F7.2°C 32.7°F0.4°C 62% 2.9 mph SW4.7 kmh SW 5.4 mph8.7 kmh 30.17 in1021.7 mb 0.00 in0.0 mm 0.00 in/hr0.0 mm/hr 0.00 in0.0 mm
02:19 AM 45.3°F7.4°C 32.6°F0.3°C 61% Calm Calm 4.3 mph6.9 kmh 30.18 in1022.0 mb 0.00 in0.0 mm 0.00 in/hr0.0 mm/hr 0.00 in0.0 mm
02:30 AM 44.6°F7.0°C 31.6°F-0.2°C 60% Calm Calm -- 30.18 in1022.0 mb 0.00 in0.0 mm 0.00 in/hr0.0 mm/hr 0.00 in0.0 mm
02:40 AM 43.5°F6.4°C 30.5°F-0.8°C 60% Calm Calm -- 30.18 in1022.0 mb 0.00 in0.0 mm 0.00 in/hr0.0 mm/hr 0.00 in0.0 mm
02:50 AM 42.4°F5.8°C 30.3°F-0.9°C 62% 1.4 mph WSW2.3 kmh WSW 2.9 mph4.7 kmh 30.18 in1022.0 mb 0.00 in0.0 mm 0.00 in/hr0.0 mm/hr 0.00 in0.0 mm
03:00 AM 41.5°F5.3°C 29.8°F-1.2°C 63% Calm Calm 0.9 mph1.4 kmh 30.19 in1022.4 mb 0.00 in0.0 mm 0.00 in/hr0.0 mm/hr 0.00 in0.0 mm
03:10 AM 41.1°F5.1°C 29.4°F-1.4°C 63% Calm Calm -- 30.19 in1022.4 mb 0.00 in0.0 mm 0.00 in/hr0.0 mm/hr 0.00 in0.0 mm
03:19 AM 40.7°F4.8°C 29.4°F-1.4°C 64% Calm Calm -- 30.19 in1022.4 mb 0.00 in0.0 mm 0.00 in/hr0.0 mm/hr 0.00 in0.0 mm
03:29 AM 39.9°F4.4°C 28.7°F-1.8°C 64% Calm Calm -- 30.18 in1022.0 mb 0.00 in0.0 mm 0.00 in/hr0.0 mm/hr 0.00 in0.0 mm
03:39 AM 39.1°F3.9°C 27.9°F-2.3°C 64% Calm Calm -- 30.18 in1022.0 mb 0.00 in0.0 mm 0.00 in/hr0.0 mm/hr 0.00 in0.0 mm
03:49 AM 38.7°F3.7°C 27.9°F-2.3°C 65% Calm Calm -- 30.18 in1022.0 mb 0.00 in0.0 mm 0.00 in/hr0.0 mm/hr 0.00 in0.0 mm
04:00 AM 38.8°F3.8°C 28.4°F-2.0°C 66% 0.7 mph WSW1.1 kmh WSW 1.6 mph2.6 kmh 30.19 in1022.4 mb 0.00 in0.0 mm 0.00 in/hr0.0 mm/hr 0.00 in0.0 mm
04:10 AM 39.0°F3.9°C 28.6°F-1.9°C 66% 2.1 mph W3.4 kmh W 3.6 mph5.8 kmh 30.18 in1022.0 mb 0.00 in0.0 mm 0.00 in/hr0.0 mm/hr 0.00 in0.0 mm
04:20 AM 38.5°F3.6°C 28.4°F-2.0°C 67% 0.7 mph W1.1 kmh W 3.8 mph6.1 kmh 30.19 in1022.4 mb 0.00 in0.0 mm 0.00 in/hr0.0 mm/hr 0.00 in0.0 mm
04:30 AM 38.1°F3.4°C 28.1°F-2.2°C 67% Calm Calm -- 30.18 in1022.0 mb 0.00 in0.0 mm 0.00 in/hr0.0 mm/hr 0.00 in0.0 mm
04:40 AM 37.8°F3.2°C 27.8°F-2.3°C 67% Calm Calm -- 30.19 in1022.4 mb 0.00 in0.0 mm 0.00 in/hr0.0 mm/hr 0.00 in0.0 mm
04:50 AM 37.4°F3.0°C 27.7°F-2.4°C 68% Calm Calm -- 30.19 in1022.4 mb 0.00 in0.0 mm 0.00 in/hr0.0 mm/hr 0.00 in0.0 mm
05:00 AM 37.0°F2.8°C 27.7°F-2.4°C 69% Calm Calm -- 30.18 in1022.0 mb 0.00 in0.0 mm 0.00 in/hr0.0 mm/hr 0.00 in0.0 mm
05:11 AM 37.2°F2.9°C 27.9°F-2.3°C 69% Calm Calm -- 30.18 in1022.0 mb 0.00 in0.0 mm 0.00 in/hr0.0 mm/hr 0.00 in0.0 mm
05:21 AM 37.6°F3.1°C 28.3°F-2.1°C 69% Calm Calm -- 30.18 in1022.0 mb 0.00 in0.0 mm 0.00 in/hr0.0 mm/hr 0.00 in0.0 mm
05:31 AM 37.6°F3.1°C 28.6°F-1.9°C 70% Calm Calm -- 30.19 in1022.4 mb 0.00 in0.0 mm 0.00 in/hr0.0 mm/hr 0.00 in0.0 mm
05:41 AM 37.6°F3.1°C 28.6°F-1.9°C 70% Calm Calm -- 30.19 in1022.4 mb 0.00 in0.0 mm 0.00 in/hr0.0 mm/hr 0.00 in0.0 mm
05:51 AM 37.8°F3.2°C 28.8°F-1.8°C 70% Calm Calm -- 30.19 in1022.4 mb 0.00 in0.0 mm 0.00 in/hr0.0 mm/hr 0.00 in0.0 mm
06:01 AM 37.9°F3.3°C 28.9°F-1.7°C 70% Calm Calm -- 30.19 in1022.4 mb 0.00 in0.0 mm 0.00 in/hr0.0 mm/hr 0.00 in0.0 mm
06:11 AM 38.3°F3.5°C 29.6°F-1.3°C 71% Calm Calm -- 30.19 in1022.4 mb 0.00 in0.0 mm 0.00 in/hr0.0 mm/hr 0.00 in0.0 mm
06:21 AM 39.4°F4.1°C 31.4°F-0.3°C 73% Calm Calm -- 30.20 in1022.7 mb 0.00 in0.0 mm 0.00 in/hr0.0 mm/hr 0.00 in0.0 mm
06:32 AM 40.8°F4.9°C 32.4°F0.2°C 72% Calm Calm -- 30.20 in1022.7 mb 0.00 in0.0 mm 0.00 in/hr0.0 mm/hr 0.00 in0.0 mm
06:42 AM 42.1°F5.6°C 33.3°F0.7°C 71% Calm Calm -- 30.20 in1022.7 mb 0.00 in0.0 mm 0.00 in/hr0.0 mm/hr 0.00 in0.0 mm
06:52 AM 43.5°F6.4°C 33.9°F1.1°C 69% 5.2 mph SSE8.4 kmh SSE 9.8 mph15.8 kmh 30.20 in1022.7 mb 0.00 in0.0 mm 0.00 in/hr0.0 mm/hr 0.00 in0.0 mm
07:02 AM 45.3°F7.4°C 34.2°F1.2°C 65% 7.3 mph S11.7 kmh S 14.8 mph23.8 kmh 30.19 in1022.4 mb 0.00 in0.0 mm 0.00 in/hr0.0 mm/hr 0.00 in0.0 mm
07:12 AM 46.6°F8.1°C 33.9°F1.1°C 61% 11.6 mph S18.7 kmh S 19.7 mph31.7 kmh 30.19 in1022.4 mb 0.00 in0.0 mm 0.00 in/hr0.0 mm/hr 0.00 in0.0 mm
07:22 AM 47.1°F8.4°C 33.5°F0.8°C 59% 11.9 mph S19.2 kmh S 15.7 mph25.3 kmh 30.20 in1022.7 mb 0.00 in0.0 mm 0.00 in/hr0.0 mm/hr 0.00 in0.0 mm
07:32 AM 47.8°F8.8°C 33.3°F0.7°C 57% 11.4 mph S18.3 kmh S 17.4 mph28.0 kmh 30.20 in1022.7 mb 0.00 in0.0 mm 0.00 in/hr0.0 mm/hr 0.00 in0.0 mm
07:42 AM 48.2°F9.0°C 33.2°F0.7°C 56% 8.3 mph SSE13.4 kmh SSE 15.0 mph24.1 kmh 30.20 in1022.7 mb 0.00 in0.0 mm 0.00 in/hr0.0 mm/hr 0.00 in0.0 mm
07:52 AM 48.4°F9.1°C 32.5°F0.3°C 54% 11.2 mph SSE18.0 kmh SSE 17.9 mph28.8 kmh 30.21 in1023.0 mb 0.00 in0.0 mm 0.00 in/hr0.0 mm/hr 0.00 in0.0 mm
08:03 AM 48.9°F9.4°C 32.5°F0.3°C 53% 11.5 mph SSW18.5 kmh SSW 16.6 mph26.7 kmh 30.21 in1023.0 mb 0.00 in0.0 mm 0.00 in/hr0.0 mm/hr 0.00 in0.0 mm
08:11 AM 49.6°F9.8°C 33.1°F0.6°C 53% 6.8 mph SSE10.9 kmh SSE 17.0 mph27.4 kmh 30.21 in1023.0 mb 0.00 in0.0 mm 0.00 in/hr0.0 mm/hr 0.00 in0.0 mm
08:22 AM 49.8°F9.9°C 32.4°F0.2°C 51% 8.7 mph SSE14.0 kmh SSE 17.2 mph27.7 kmh 30.21 in1023.0 mb 0.00 in0.0 mm 0.00 in/hr0.0 mm/hr 0.00 in0.0 mm
08:32 AM 50.4°F10.2°C 32.9°F0.5°C 51% 11.0 mph S17.7 kmh S 14.8 mph23.8 kmh 30.21 in1023.0 mb 0.00 in0.0 mm 0.00 in/hr0.0 mm/hr 0.00 in0.0 mm
08:42 AM 50.7°F10.4°C 33.2°F0.7°C 51% 6.8 mph SSE10.9 kmh SSE 16.6 mph26.7 kmh 30.21 in1023.0 mb 0.00 in0.0 mm 0.00 in/hr0.0 mm/hr 0.00 in0.0 mm
08:52 AM 51.1°F10.6°C 33.1°F0.6°C 50% 12.5 mph S20.1 kmh S 18.3 mph29.5 kmh 30.21 in1023.0 mb 0.00 in0.0 mm 0.00 in/hr0.0 mm/hr 0.00 in0.0 mm
09:03 AM 50.9°F10.5°C 32.9°F0.5°C 50% 3.0 mph SSE4.8 kmh SSE 21.7 mph34.9 kmh 30.22 in1023.4 mb 0.00 in0.0 mm 0.00 in/hr0.0 mm/hr 0.00 in0.0 mm
09:13 AM 52.0°F11.1°C 33.9°F1.1°C 50% 5.8 mph S9.3 kmh S 13.4 mph21.6 kmh 30.22 in1023.4 mb 0.00 in0.0 mm 0.00 in/hr0.0 mm/hr 0.00 in0.0 mm
09:23 AM 52.3°F11.3°C 33.7°F0.9°C 49% 2.9 mph SSE4.7 kmh SSE 16.3 mph26.2 kmh 30.22 in1023.4 mb 0.00 in0.0 mm 0.00 in/hr0.0 mm/hr 0.00 in0.0 mm
09:33 AM 52.5°F11.4°C 33.3°F0.7°C 48% 12.0 mph S19.3 kmh S 19.0 mph30.6 kmh 30.22 in1023.4 mb 0.00 in0.0 mm 0.00 in/hr0.0 mm/hr 0.00 in0.0 mm
09:43 AM 53.1°F11.7°C 33.9°F1.1°C 48% 9.9 mph SSE15.9 kmh SSE 17.2 mph27.7 kmh 30.22 in1023.4 mb 0.00 in0.0 mm 0.00 in/hr0.0 mm/hr 0.00 in0.0 mm
09:53 AM 53.8°F12.1°C 33.4°F0.8°C 46% 8.0 mph S12.9 kmh S 19.9 mph32.0 kmh 30.22 in1023.4 mb 0.00 in0.0 mm 0.00 in/hr0.0 mm/hr 0.00 in0.0 mm
10:03 AM 54.5°F12.5°C 34.1°F1.2°C 46% 6.9 mph S11.1 kmh S 19.9 mph32.0 kmh 30.22 in1023.4 mb 0.00 in0.0 mm 0.00 in/hr0.0 mm/hr 0.00 in0.0 mm
10:13 AM 55.0°F12.8°C 34.0°F1.1°C 45% 8.2 mph S13.2 kmh S 16.8 mph27.0 kmh 30.21 in1023.0 mb 0.00 in0.0 mm 0.00 in/hr0.0 mm/hr 0.00 in0.0 mm
10:23 AM 55.1°F12.8°C 33.5°F0.8°C 44% 6.3 mph SSE10.1 kmh SSE 18.8 mph30.3 kmh 30.22 in1023.4 mb 0.00 in0.0 mm 0.00 in/hr0.0 mm/hr 0.00 in0.0 mm
10:34 AM 56.2°F13.4°C 33.9°F1.1°C 43% 8.3 mph S13.4 kmh S 14.3 mph23.0 kmh 30.21 in1023.0 mb 0.00 in0.0 mm 0.00 in/hr0.0 mm/hr 0.00 in0.0 mm
10:44 AM 56.3°F13.5°C 33.5°F0.8°C 42% 9.1 mph S14.6 kmh S 14.3 mph23.0 kmh 30.21 in1023.0 mb 0.00 in0.0 mm 0.00 in/hr0.0 mm/hr 0.00 in0.0 mm
10:54 AM 56.9°F13.8°C 34.0°F1.1°C 42% 6.1 mph SE9.8 kmh SE 13.4 mph21.6 kmh 30.21 in1023.0 mb 0.00 in0.0 mm 0.00 in/hr0.0 mm/hr 0.00 in0.0 mm
11:04 AM 58.2°F14.6°C 33.3°F0.7°C 39% 10.1 mph S16.3 kmh S 15.2 mph24.5 kmh 30.21 in1023.0 mb 0.00 in0.0 mm 0.00 in/hr0.0 mm/hr 0.00 in0.0 mm
11:14 AM 58.7°F14.8°C 33.1°F0.6°C 38% 10.0 mph S16.1 kmh S 15.7 mph25.3 kmh 30.21 in1023.0 mb 0.00 in0.0 mm 0.00 in/hr0.0 mm/hr 0.00 in0.0 mm
11:24 AM 58.8°F14.9°C 33.2°F0.7°C 38% 10.8 mph S17.4 kmh S 19.5 mph31.4 kmh 30.20 in1022.7 mb 0.00 in0.0 mm 0.00 in/hr0.0 mm/hr 0.00 in0.0 mm
11:34 AM 59.3°F15.2°C 32.3°F0.2°C 36% 8.5 mph S13.7 kmh S 19.5 mph31.4 kmh 30.20 in1022.7 mb 0.00 in0.0 mm 0.00 in/hr0.0 mm/hr 0.00 in0.0 mm
11:44 AM 58.8°F14.9°C 31.9°F-0.1°C 36% 5.8 mph SSE9.3 kmh SSE 14.1 mph22.7 kmh 30.20 in1022.7 mb 0.00 in0.0 mm 0.00 in/hr0.0 mm/hr 0.00 in0.0 mm
11:54 AM 59.4°F15.2°C 32.4°F0.2°C 36% 4.9 mph SSE7.9 kmh SSE 18.6 mph29.9 kmh 30.20 in1022.7 mb 0.00 in0.0 mm 0.00 in/hr0.0 mm/hr 0.00 in0.0 mm
12:05 PM 60.8°F16.0°C 32.3°F0.2°C 34% 6.4 mph S10.3 kmh S 15.7 mph25.3 kmh 30.20 in1022.7 mb 0.00 in0.0 mm 0.00 in/hr0.0 mm/hr 0.00 in0.0 mm
12:15 PM 61.0°F16.1°C 31.7°F-0.2°C 33% 6.8 mph S10.9 kmh S 23.0 mph37.0 kmh 30.20 in1022.7 mb 0.00 in0.0 mm 0.00 in/hr0.0 mm/hr 0.00 in0.0 mm
12:25 PM 61.3°F16.3°C 32.0°F0.0°C 33% 8.1 mph SE13.0 kmh SE 16.3 mph26.2 kmh 30.20 in1022.7 mb 0.00 in0.0 mm 0.00 in/hr0.0 mm/hr 0.00 in0.0 mm
12:35 PM 62.1°F16.7°C 31.9°F-0.1°C 32% 9.7 mph S15.6 kmh S 18.8 mph30.3 kmh 30.21 in1023.0 mb 0.00 in0.0 mm 0.00 in/hr0.0 mm/hr 0.00 in0.0 mm
12:45 PM 62.3°F16.8°C 32.1°F0.1°C 32% 12.2 mph SSW19.6 kmh SSW 18.6 mph29.9 kmh 30.20 in1022.7 mb 0.00 in0.0 mm 0.00 in/hr0.0 mm/hr 0.00 in0.0 mm
12:55 PM 63.4°F17.4°C 33.1°F0.6°C 32% 3.3 mph SSW5.3 kmh SSW 16.8 mph27.0 kmh 30.20 in1022.7 mb 0.00 in0.0 mm 0.00 in/hr0.0 mm/hr 0.00 in0.0 mm
01:06 PM 64.3°F17.9°C 32.3°F0.2°C 30% 8.0 mph S12.9 kmh S 16.1 mph25.9 kmh 30.19 in1022.4 mb 0.00 in0.0 mm 0.00 in/hr0.0 mm/hr 0.00 in0.0 mm
01:15 PM 64.7°F18.2°C 32.6°F0.3°C 30% 5.6 mph S9.0 kmh S 18.8 mph30.3 kmh 30.19 in1022.4 mb 0.00 in0.0 mm 0.00 in/hr0.0 mm/hr 0.00 in0.0 mm
01:25 PM 65.9°F18.8°C 31.2°F-0.4°C 27% 8.9 mph SW14.3 kmh SW 18.1 mph29.1 kmh 30.19 in1022.4 mb 0.00 in0.0 mm 0.00 in/hr0.0 mm/hr 0.00 in0.0 mm
01:35 PM 66.0°F18.9°C 30.4°F-0.9°C 27% 8.9 mph S14.3 kmh S 20.6 mph33.2 kmh 30.19 in1022.4 mb 0.00 in0.0 mm 0.00 in/hr0.0 mm/hr 0.00 in0.0 mm
01:45 PM 65.0°F18.3°C 32.1°F0.1°C 29% 12.0 mph SSW19.3 kmh SSW 20.4 mph32.8 kmh 30.19 in1022.4 mb 0.00 in0.0 mm 0.00 in/hr0.0 mm/hr 0.00 in0.0 mm
01:55 PM 66.1°F18.9°C 33.1°F0.6°C 29% 10.7 mph S17.2 kmh S 19.0 mph30.6 kmh 30.19 in1022.4 mb 0.00 in0.0 mm 0.00 in/hr0.0 mm/hr 0.00 in0.0 mm
02:06 PM 65.9°F18.8°C 32.8°F0.4°C 29% 12.5 mph S20.1 kmh S 20.6 mph33.2 kmh 30.19 in1022.4 mb 0.00 in0.0 mm 0.00 in/hr0.0 mm/hr 0.00 in0.0 mm
02:16 PM 66.2°F19.0°C 34.0°F1.1°C 30% 10.2 mph SSE16.4 kmh SSE 25.5 mph41.0 kmh 30.19 in1022.4 mb 0.00 in0.0 mm 0.00 in/hr0.0 mm/hr 0.00 in0.0 mm
02:26 PM 64.6°F18.1°C 33.4°F0.8°C 31% 12.2 mph S19.6 kmh S 21.5 mph34.6 kmh 30.19 in1022.4 mb 0.00 in0.0 mm 0.00 in/hr0.0 mm/hr 0.00 in0.0 mm
02:36 PM 64.2°F17.9°C 33.8°F1.0°C 32% 11.6 mph S18.7 kmh S 17.4 mph28.0 kmh 30.18 in1022.0 mb 0.00 in0.0 mm 0.00 in/hr0.0 mm/hr 0.00 in0.0 mm
02:46 PM 64.4°F18.0°C 34.7°F1.5°C 33% 13.8 mph S22.2 kmh S 17.9 mph28.8 kmh 30.18 in1022.0 mb 0.00 in0.0 mm 0.00 in/hr0.0 mm/hr 0.00 in0.0 mm
02:56 PM 64.0°F17.8°C 34.3°F1.3°C 33% 9.3 mph S15.0 kmh S 19.0 mph30.6 kmh 30.18 in1022.0 mb 0.00 in0.0 mm 0.00 in/hr0.0 mm/hr 0.00 in0.0 mm
03:06 PM 65.1°F18.4°C 35.3°F1.8°C 33% 9.9 mph SSE15.9 kmh SSE 19.7 mph31.7 kmh 30.18 in1022.0 mb 0.00 in0.0 mm 0.00 in/hr0.0 mm/hr 0.00 in0.0 mm
03:16 PM 65.1°F18.4°C 34.6°F1.4°C 32% 11.3 mph S18.2 kmh S 21.7 mph34.9 kmh 30.17 in1021.7 mb 0.00 in0.0 mm 0.00 in/hr0.0 mm/hr 0.00 in0.0 mm
03:27 PM 66.0°F18.9°C 35.4°F1.9°C 32% 7.3 mph S11.7 kmh S 18.8 mph30.3 kmh 30.17 in1021.7 mb 0.00 in0.0 mm 0.00 in/hr0.0 mm/hr 0.00 in0.0 mm
03:37 PM 66.6°F19.2°C 35.1°F1.7°C 31% 10.9 mph S17.5 kmh S 16.3 mph26.2 kmh 30.16 in1021.3 mb 0.00 in0.0 mm 0.00 in/hr0.0 mm/hr 0.00 in0.0 mm
03:47 PM 66.2°F19.0°C 34.8°F1.6°C 31% 8.4 mph S13.5 kmh S 23.0 mph37.0 kmh 30.16 in1021.3 mb 0.00 in0.0 mm 0.00 in/hr0.0 mm/hr 0.00 in0.0 mm
03:57 PM 66.7°F19.3°C 34.4°F1.3°C 30% 9.5 mph S15.3 kmh S 18.3 mph29.5 kmh 30.16 in1021.3 mb 0.00 in0.0 mm 0.00 in/hr0.0 mm/hr 0.00 in0.0 mm
04:07 PM 67.6°F19.8°C 34.4°F1.3°C 29% 11.0 mph S17.7 kmh S 18.6 mph29.9 kmh 30.16 in1021.3 mb 0.00 in0.0 mm 0.00 in/hr0.0 mm/hr 0.00 in0.0 mm
04:17 PM 67.6°F19.8°C 34.4°F1.3°C 29% 7.6 mph S12.2 kmh S 19.9 mph32.0 kmh 30.16 in1021.3 mb 0.00 in0.0 mm 0.00 in/hr0.0 mm/hr 0.00 in0.0 mm
04:27 PM 67.8°F19.9°C 34.5°F1.4°C 29% 11.1 mph S17.9 kmh S 16.8 mph27.0 kmh 30.17 in1021.7 mb 0.00 in0.0 mm 0.00 in/hr0.0 mm/hr 0.00 in0.0 mm
04:38 PM 66.4°F19.1°C 34.1°F1.2°C 30% 6.2 mph S10.0 kmh S 15.0 mph24.1 kmh 30.17 in1021.7 mb 0.00 in0.0 mm 0.00 in/hr0.0 mm/hr 0.00 in0.0 mm
04:48 PM 64.9°F18.3°C 32.8°F0.4°C 30% 12.6 mph S20.3 kmh S 21.3 mph34.3 kmh 30.19 in1022.4 mb 0.00 in0.0 mm 0.00 in/hr0.0 mm/hr 0.00 in0.0 mm
04:58 PM 64.0°F17.8°C 32.0°F0.0°C 30% 10.7 mph S17.2 kmh S 23.7 mph38.1 kmh 30.18 in1022.0 mb 0.00 in0.0 mm 0.00 in/hr0.0 mm/hr 0.00 in0.0 mm
05:08 PM 64.2°F17.9°C 30.6°F-0.8°C 28% 9.5 mph S15.3 kmh S 19.0 mph30.6 kmh 30.18 in1022.0 mb 0.00 in0.0 mm 0.00 in/hr0.0 mm/hr 0.00 in0.0 mm
05:18 PM 63.7°F17.6°C 32.6°F0.3°C 31% 11.5 mph S18.5 kmh S 17.2 mph27.7 kmh 30.19 in1022.4 mb 0.00 in0.0 mm 0.00 in/hr0.0 mm/hr 0.00 in0.0 mm
05:28 PM 62.4°F16.9°C 33.7°F0.9°C 34% 7.4 mph S11.9 kmh S 14.1 mph22.7 kmh 30.19 in1022.4 mb 0.00 in0.0 mm 0.00 in/hr0.0 mm/hr 0.00 in0.0 mm
05:38 PM 61.9°F16.6°C 34.6°F1.4°C 36% 5.8 mph S9.3 kmh S 11.0 mph17.7 kmh 30.20 in1022.7 mb 0.00 in0.0 mm 0.00 in/hr0.0 mm/hr 0.00 in0.0 mm
05:48 PM 62.2°F16.8°C 34.9°F1.6°C 36% 4.2 mph SSE6.8 kmh SSE 10.1 mph16.3 kmh 30.20 in1022.7 mb 0.00 in0.0 mm 0.00 in/hr0.0 mm/hr 0.00 in0.0 mm
05:58 PM 62.4°F16.9°C 33.7°F0.9°C 34% 6.0 mph SSW9.7 kmh SSW 11.0 mph17.7 kmh 30.20 in1022.7 mb 0.00 in0.0 mm 0.00 in/hr0.0 mm/hr 0.00 in0.0 mm
06:08 PM 61.9°F16.6°C 32.5°F0.3°C 33% 5.5 mph S8.9 kmh S 13.4 mph21.6 kmh 30.21 in1023.0 mb 0.00 in0.0 mm 0.00 in/hr0.0 mm/hr 0.00 in0.0 mm
06:17 PM 61.4°F16.3°C 32.0°F0.0°C 33% 10.5 mph S16.9 kmh S 16.1 mph25.9 kmh 30.21 in1023.0 mb 0.00 in0.0 mm 0.00 in/hr0.0 mm/hr 0.00 in0.0 mm
06:28 PM 60.8°F16.0°C 31.5°F-0.3°C 33% 8.6 mph SSE13.8 kmh SSE 16.1 mph25.9 kmh 30.21 in1023.0 mb 0.00 in0.0 mm 0.00 in/hr0.0 mm/hr 0.00 in0.0 mm
06:38 PM 60.3°F15.7°C 31.8°F-0.1°C 34% 5.1 mph S8.2 kmh S 12.1 mph19.5 kmh 30.21 in1023.0 mb 0.00 in0.0 mm 0.00 in/hr0.0 mm/hr 0.00 in0.0 mm
06:48 PM 59.6°F15.3°C 31.9°F-0.1°C 35% 2.5 mph SW4.0 kmh SW 8.5 mph13.7 kmh 30.21 in1023.0 mb 0.00 in0.0 mm 0.00 in/hr0.0 mm/hr 0.00 in0.0 mm
06:58 PM 58.8°F14.9°C 31.8°F-0.1°C 36% Calm Calm -- 30.21 in1023.0 mb 0.00 in0.0 mm 0.00 in/hr0.0 mm/hr 0.00 in0.0 mm
07:08 PM 57.4°F14.1°C 31.3°F-0.4°C 37% 2.3 mph SW3.7 kmh SW 4.0 mph6.4 kmh 30.21 in1023.0 mb 0.00 in0.0 mm 0.00 in/hr0.0 mm/hr 0.00 in0.0 mm
07:18 PM 56.4°F13.6°C 31.7°F-0.2°C 39% 0.2 mph SW0.3 kmh SW 1.8 mph2.9 kmh 30.21 in1023.0 mb 0.00 in0.0 mm 0.00 in/hr0.0 mm/hr 0.00 in0.0 mm
07:28 PM 55.5°F13.1°C 31.5°F-0.3°C 40% 2.3 mph WNW3.7 kmh WNW 4.3 mph6.9 kmh 30.22 in1023.4 mb 0.00 in0.0 mm 0.00 in/hr0.0 mm/hr 0.00 in0.0 mm
07:39 PM 55.1°F12.8°C 31.7°F-0.2°C 41% 3.4 mph WNW5.5 kmh WNW 7.6 mph12.2 kmh 30.22 in1023.4 mb 0.00 in0.0 mm 0.00 in/hr0.0 mm/hr 0.00 in0.0 mm
07:49 PM 54.4°F12.4°C 31.7°F-0.2°C 42% 4.5 mph WNW7.2 kmh WNW 7.6 mph12.2 kmh 30.22 in1023.4 mb 0.00 in0.0 mm 0.00 in/hr0.0 mm/hr 0.00 in0.0 mm
07:59 PM 54.3°F12.4°C 32.2°F0.1°C 43% 1.6 mph WNW2.6 kmh WNW 7.6 mph12.2 kmh 30.21 in1023.0 mb 0.00 in0.0 mm 0.00 in/hr0.0 mm/hr 0.00 in0.0 mm
08:09 PM 53.7°F12.1°C 32.3°F0.2°C 44% 4.0 mph WNW6.4 kmh WNW 6.7 mph10.8 kmh 30.22 in1023.4 mb 0.00 in0.0 mm 0.00 in/hr0.0 mm/hr 0.00 in0.0 mm
08:19 PM 53.3°F11.8°C 32.4°F0.2°C 45% 3.2 mph WNW5.1 kmh WNW 7.8 mph12.6 kmh 30.22 in1023.4 mb 0.00 in0.0 mm 0.00 in/hr0.0 mm/hr 0.00 in0.0 mm
08:29 PM 53.2°F11.8°C 32.9°F0.5°C 46% 3.1 mph WNW5.0 kmh WNW 5.1 mph8.2 kmh 30.22 in1023.4 mb 0.00 in0.0 mm 0.00 in/hr0.0 mm/hr 0.00 in0.0 mm
08:39 PM 53.1°F11.7°C 33.4°F0.8°C 47% 2.5 mph WNW4.0 kmh WNW 5.1 mph8.2 kmh 30.23 in1023.7 mb 0.00 in0.0 mm 0.00 in/hr0.0 mm/hr 0.00 in0.0 mm
08:49 PM 52.9°F11.6°C 33.1°F0.6°C 47% 2.5 mph NW4.0 kmh NW 7.2 mph11.6 kmh 30.22 in1023.4 mb 0.00 in0.0 mm 0.00 in/hr0.0 mm/hr 0.00 in0.0 mm
09:00 PM 53.0°F11.7°C 33.8°F1.0°C 48% Calm Calm 6.5 mph10.5 kmh 30.22 in1023.4 mb 0.00 in0.0 mm 0.00 in/hr0.0 mm/hr 0.00 in0.0 mm
09:10 PM 52.9°F11.6°C 33.7°F0.9°C 48% Calm Calm -- 30.22 in1023.4 mb 0.00 in0.0 mm 0.00 in/hr0.0 mm/hr 0.00 in0.0 mm
09:20 PM 52.5°F11.4°C 33.9°F1.1°C 49% 3.3 mph NW5.3 kmh NW 4.9 mph7.9 kmh 30.22 in1023.4 mb 0.00 in0.0 mm 0.00 in/hr0.0 mm/hr 0.00 in0.0 mm
09:30 PM 51.8°F11.0°C 32.6°F0.3°C 48% Calm Calm 4.7 mph7.6 kmh 30.22 in1023.4 mb 0.00 in0.0 mm 0.00 in/hr0.0 mm/hr 0.00 in0.0 mm
09:40 PM 51.5°F10.8°C 32.9°F0.5°C 49% 1.3 mph NW2.1 kmh NW 1.6 mph2.6 kmh 30.22 in1023.4 mb 0.00 in0.0 mm 0.00 in/hr0.0 mm/hr 0.00 in0.0 mm
09:50 PM 51.0°F10.6°C 33.0°F0.6°C 50% 2.6 mph NW4.2 kmh NW 5.1 mph8.2 kmh 30.21 in1023.0 mb 0.00 in0.0 mm 0.00 in/hr0.0 mm/hr 0.00 in0.0 mm
10:00 PM 50.4°F10.2°C 32.9°F0.5°C 51% Calm Calm -- 30.21 in1023.0 mb 0.00 in0.0 mm 0.00 in/hr0.0 mm/hr 0.00 in0.0 mm
10:10 PM 49.9°F9.9°C 32.9°F0.5°C 52% Calm Calm -- 30.21 in1023.0 mb 0.00 in0.0 mm 0.00 in/hr0.0 mm/hr 0.00 in0.0 mm
10:20 PM 49.0°F9.4°C 32.6°F0.3°C 53% Calm Calm 0.9 mph1.4 kmh 30.21 in1023.0 mb 0.00 in0.0 mm 0.00 in/hr0.0 mm/hr 0.00 in0.0 mm
10:30 PM 48.8°F9.3°C 32.8°F0.4°C 54% Calm Calm -- 30.21 in1023.0 mb 0.00 in0.0 mm 0.00 in/hr0.0 mm/hr 0.00 in0.0 mm
10:41 PM 48.4°F9.1°C 32.9°F0.5°C 55% Calm Calm -- 30.21 in1023.0 mb 0.00 in0.0 mm 0.00 in/hr0.0 mm/hr 0.00 in0.0 mm
10:51 PM 48.2°F9.0°C 33.2°F0.7°C 56% 4.9 mph NW7.9 kmh NW 6.0 mph9.7 kmh 30.21 in1023.0 mb 0.00 in0.0 mm 0.00 in/hr0.0 mm/hr 0.00 in0.0 mm
11:01 PM 47.9°F8.8°C 33.4°F0.8°C 57% 4.5 mph NW7.2 kmh NW 5.6 mph9.0 kmh 30.20 in1022.7 mb 0.00 in0.0 mm 0.00 in/hr0.0 mm/hr 0.00 in0.0 mm
11:11 PM 47.5°F8.6°C 33.4°F0.8°C 58% 4.1 mph NW6.6 kmh NW 6.0 mph9.7 kmh 30.20 in1022.7 mb 0.00 in0.0 mm 0.00 in/hr0.0 mm/hr 0.00 in0.0 mm
11:21 PM 47.3°F8.5°C 33.2°F0.7°C 58% 1.4 mph NW2.3 kmh NW 5.6 mph9.0 kmh 30.19 in1022.4 mb 0.00 in0.0 mm 0.00 in/hr0.0 mm/hr 0.00 in0.0 mm
11:30 PM 46.9°F8.3°C 32.9°F0.5°C 58% 1.1 mph NW1.8 kmh NW 4.0 mph6.4 kmh 30.19 in1022.4 mb 0.00 in0.0 mm 0.00 in/hr0.0 mm/hr 0.00 in0.0 mm
11:41 PM 46.9°F8.3°C 33.3°F0.7°C 59% 5.5 mph NW8.9 kmh NW 8.5 mph13.7 kmh 30.19 in1022.4 mb 0.00 in0.0 mm 0.00 in/hr0.0 mm/hr 0.00 in0.0 mm
11:51 PM 47.0°F8.3°C 33.8°F1.0°C 60% 1.8 mph NW2.9 kmh NW 3.8 mph6.1 kmh 30.19 in1022.4 mb 0.00 in0.0 mm 0.00 in/hr0.0 mm/hr 0.00 in0.0 mm